Time;durP1;ratioP1;P1;durP2;ratioP2;P2;SDS_P1;SDS_P2;PMS_P1;PMS_P2;Temp;Humidity;BMP_temperature;BMP_pressure;BME280_temperature;BME280_humidity;BME280_pressure;Samples;Min_cycle;Max_cycle;Signal;HPM_P1;HPM_P2
2021/04/07 00:00:35;;;;;;;10.73;2.90;;;;;;;-1.31;89.68;99733.03;5095349;28;20205;-71
2021/04/07 00:03:02;;;;;;;13.47;2.70;;;;;;;-1.27;89.53;99734.66;5093488;28;20177;-71
2021/04/07 00:05:36;;;;;;;13.10;2.60;;;;;;;-1.23;89.21;99736.31;5094721;28;20261;-70
2021/04/07 00:08:03;;;;;;;9.63;3.50;;;;;;;-1.14;89.07;99737.84;5094623;28;20162;-71
2021/04/07 00:10:39;;;;;;;17.87;3.73;;;;;;;-1.07;88.23;99745.56;5093003;28;20571;-70
2021/04/07 00:13:06;;;;;;;10.23;3.10;;;;;;;-1.06;88.24;99739.44;5094352;28;20158;-71
2021/04/07 00:15:32;;;;;;;11.40;3.30;;;;;;;-1.05;87.87;99735.91;5094616;28;20174;-72
2021/04/07 00:17:58;;;;;;;14.50;3.83;;;;;;;-1.09;87.75;99730.78;5076152;28;20174;-71
2021/04/07 00:20:25;;;;;;;10.57;3.50;;;;;;;-1.04;87.37;99736.78;5094260;28;20196;-73
2021/04/07 00:22:51;;;;;;;10.73;3.43;;;;;;;-1.03;87.40;99731.50;5094613;28;20178;-71
2021/04/07 00:25:18;;;;;;;7.30;3.10;;;;;;;-1.05;87.37;99738.53;5077231;28;20343;-71
2021/04/07 00:27:51;;;;;;;11.77;3.57;;;;;;;-1.03;86.86;99736.75;5096408;28;20189;-72
2021/04/07 00:30:17;;;;;;;14.77;4.77;;;;;;;-1.04;86.78;99740.25;5096710;28;20574;-71
2021/04/07 00:32:42;;;;;;;14.17;3.17;;;;;;;-1.03;86.54;99741.97;5096465;28;20178;-71
2021/04/07 00:35:08;;;;;;;11.53;3.30;;;;;;;-0.99;86.13;99740.16;5096741;28;20223;-71
2021/04/07 00:37:36;;;;;;;12.67;3.73;;;;;;;-0.98;86.39;99749.72;5096232;28;20177;-71
2021/04/07 00:40:02;;;;;;;15.83;4.40;;;;;;;-0.95;85.87;99749.66;5095688;28;20558;-72
2021/04/07 00:42:32;;;;;;;14.60;4.03;;;;;;;-0.95;85.82;99754.91;5095104;28;20242;-71
2021/04/07 00:44:57;;;;;;;13.77;4.20;;;;;;;-1.00;86.08;99754.13;5096454;28;20180;-72
2021/04/07 00:47:22;;;;;;;10.10;3.90;;;;;;;-0.91;85.41;99750.44;5095758;28;20295;-73
2021/04/07 00:49:48;;;;;;;13.57;3.63;;;;;;;-1.00;85.71;99762.84;5094139;28;20251;-72
2021/04/07 00:52:13;;;;;;;13.00;4.77;;;;;;;-1.02;85.77;99755.94;5095380;28;20573;-71
2021/04/07 00:54:38;;;;;;;14.97;4.30;;;;;;;-1.03;85.78;99751.59;5095314;28;20182;-73
2021/04/07 00:57:04;;;;;;;11.23;3.30;;;;;;;-1.00;85.42;99751.53;5096026;28;20178;-71
2021/04/07 00:59:29;;;;;;;12.37;4.00;;;;;;;-1.05;85.67;99754.25;5078125;28;20201;-70
2021/04/07 01:01:55;;;;;;;13.10;3.97;;;;;;;-1.01;85.62;99766.38;5096088;28;20174;-71
2021/04/07 01:04:21;;;;;;;15.47;4.00;;;;;;;-1.01;85.52;99766.38;5100012;28;20242;-71
2021/04/07 01:06:47;;;;;;;8.67;3.90;;;;;;;-1.07;85.45;99771.75;5104040;28;20617;-72
2021/04/07 01:09:13;;;;;;;13.53;4.10;;;;;;;-1.07;85.40;99763.91;5098248;28;20196;-71
2021/04/07 01:11:39;;;;;;;12.60;3.80;;;;;;;-1.15;85.92;99771.03;5097829;28;20194;-71
2021/04/07 01:14:04;;;;;;;13.53;3.60;;;;;;;-1.11;85.50;99775.34;5097028;28;20196;-71
2021/04/07 01:16:30;;;;;;;10.83;3.87;;;;;;;-1.16;85.76;99776.31;5098485;28;20185;-71
2021/04/07 01:18:56;;;;;;;9.60;3.37;;;;;;;-1.11;85.58;99770.09;5098108;28;20194;-71
2021/04/07 01:21:21;;;;;;;9.07;3.40;;;;;;;-1.14;85.50;99769.28;5097775;28;20182;-71
2021/04/07 01:23:49;;;;;;;9.77;3.03;;;;;;;-1.10;85.45;99773.59;5097079;28;20227;-71
2021/04/07 01:26:15;;;;;;;16.90;4.10;;;;;;;-1.03;84.91;99778.66;5098293;28;20181;-71
2021/04/07 01:28:41;;;;;;;15.50;3.67;;;;;;;-1.04;84.98;99789.16;5098991;28;20204;-71
2021/04/07 01:31:07;;;;;;;12.90;3.67;;;;;;;-1.08;84.97;99775.28;5098572;28;20281;-71
2021/04/07 01:33:33;;;;;;;12.20;3.97;;;;;;;-1.05;84.77;99785.69;5096657;28;20170;-71
2021/04/07 01:35:58;;;;;;;16.43;3.60;;;;;;;-1.06;84.62;99793.56;5097696;28;20634;-71
2021/04/07 01:38:24;;;;;;;11.13;3.53;;;;;;;-1.01;84.26;99807.41;5096541;28;20207;-70
2021/04/07 01:40:54;;;;;;;13.13;3.70;;;;;;;-1.02;84.29;99789.97;5097244;28;20190;-71
2021/04/07 01:43:19;;;;;;;12.27;3.23;;;;;;;-0.99;84.48;99796.00;5097823;28;20178;-71
2021/04/07 01:45:46;;;;;;;8.93;3.77;;;;;;;-1.00;84.16;99793.44;5097384;28;20178;-71
2021/04/07 01:48:13;;;;;;;16.77;3.63;;;;;;;-1.03;84.27;99799.59;5096883;28;20182;-70
2021/04/07 01:50:42;;;;;;;13.97;3.43;;;;;;;-1.06;84.40;99798.81;5097327;28;20285;-71
2021/04/07 01:53:12;;;;;;;13.37;4.10;;;;;;;-1.06;84.48;99801.44;5097778;28;20631;-70
2021/04/07 01:55:37;;;;;;;12.97;3.57;;;;;;;-1.07;84.25;99805.81;5096222;28;20561;-69
2021/04/07 01:58:03;;;;;;;12.97;2.97;;;;;;;-1.05;84.59;99806.63;5098493;28;20256;-69
2021/04/07 02:00:29;;;;;;;14.50;3.80;;;;;;;-1.06;84.47;99804.91;5078721;28;20285;-71
2021/04/07 02:02:54;;;;;;;36.50;4.43;;;;;;;-1.03;84.29;99802.22;5096330;28;20184;-72
2021/04/07 02:05:20;;;;;;;14.73;3.00;;;;;;;-1.05;84.16;99797.91;5096339;28;20225;-72
2021/04/07 02:07:45;;;;;;;14.23;3.20;;;;;;;-1.03;84.49;99812.69;5096242;28;20542;-72
2021/04/07 02:10:11;;;;;;;15.87;4.83;;;;;;;-1.05;84.43;99803.16;5077782;28;20645;-71
2021/04/07 02:12:36;;;;;;;9.80;3.40;;;;;;;-1.01;84.26;99803.03;5096453;28;20178;-71
2021/04/07 02:15:21;;;;;;;12.20;3.20;;;;;;;-1.02;84.41;99803.94;5095432;28;20186;-71
2021/04/07 02:17:46;;;;;;;15.47;3.57;;;;;;;-1.03;84.03;99810.06;5096443;28;20162;-71
2021/04/07 02:20:12;;;;;;;16.27;3.93;;;;;;;-0.93;83.64;99825.59;5096536;28;20190;-71
2021/04/07 02:22:38;;;;;;;11.17;3.33;;;;;;;-0.96;83.80;99811.66;5096412;28;20231;-71
2021/04/07 02:25:05;;;;;;;13.40;3.20;;;;;;;-0.98;83.56;99808.22;5094977;28;20178;-71
2021/04/07 02:27:32;;;;;;;12.00;3.17;;;;;;;-1.06;83.91;99809.28;5097245;28;20197;-71
2021/04/07 02:29:57;;;;;;;11.50;3.43;;;;;;;-1.01;84.06;99820.53;5096262;28;20207;-71
2021/04/07 02:32:24;;;;;;;11.10;3.13;;;;;;;-1.01;84.23;99821.38;5096632;28;20178;-71
2021/04/07 02:34:50;;;;;;;10.80;3.43;;;;;;;-1.07;83.98;99820.66;5095866;28;20616;-71
2021/04/07 02:37:16;;;;;;;14.80;3.60;;;;;;;-1.04;84.08;99810.97;5096902;28;20183;-71
2021/04/07 02:39:43;;;;;;;16.80;3.30;;;;;;;-0.96;83.98;99827.38;5095738;28;20194;-71
2021/04/07 02:42:09;;;;;;;18.43;3.57;;;;;;;-0.90;83.58;99825.50;5097577;28;20177;-71
2021/04/07 02:44:35;;;;;;;8.87;3.23;;;;;;;-0.96;83.53;99822.13;5095941;28;20178;-70
2021/04/07 02:47:01;;;;;;;12.47;2.93;;;;;;;-0.99;84.16;99821.34;5096525;28;20174;-70
2021/04/07 02:49:26;;;;;;;12.70;3.17;;;;;;;-1.01;84.03;99829.25;5096030;28;20280;-71
2021/04/07 02:51:52;;;;;;;7.43;3.03;;;;;;;-0.98;84.08;99829.16;5096007;28;20194;-71
2021/04/07 02:54:17;;;;;;;14.73;3.37;;;;;;;-1.07;84.25;99821.53;5094707;28;20198;-72
2021/04/07 02:56:43;;;;;;;12.37;3.20;;;;;;;-1.01;83.89;99824.00;5095847;28;20627;-71
2021/04/07 02:59:08;;;;;;;12.83;3.33;;;;;;;-0.98;83.88;99833.53;5095709;28;20210;-72
2021/04/07 03:01:34;;;;;;;14.53;3.60;;;;;;;-1.00;84.05;99828.34;5096059;28;20178;-72
2021/04/07 03:03:59;;;;;;;15.27;3.43;;;;;;;-1.02;84.33;99831.88;5094843;28;20209;-72
2021/04/07 03:06:25;;;;;;;10.00;3.73;;;;;;;-1.04;83.97;99833.69;5093479;28;20209;-71
2021/04/07 03:08:50;;;;;;;13.03;3.23;;;;;;;-0.99;84.08;99842.28;5093444;28;20218;-72
2021/04/07 03:11:16;;;;;;;9.63;3.30;;;;;;;-0.97;83.92;99820.41;5095010;28;20222;-71
2021/04/07 03:13:41;;;;;;;6.97;3.03;;;;;;;-1.00;83.83;99817.00;5096431;28;20174;-72
2021/04/07 03:16:06;;;;;;;13.77;3.97;;;;;;;-1.02;84.44;99837.13;5096636;28;20184;-72
2021/04/07 03:18:32;;;;;;;11.97;3.40;;;;;;;-1.05;84.14;99827.59;5096643;28;20181;-71
2021/04/07 03:20:57;;;;;;;10.57;3.70;;;;;;;-1.06;84.24;99838.94;5095008;28;20584;-72
2021/04/07 03:23:22;;;;;;;14.70;4.17;;;;;;;-1.07;84.20;99825.91;5095856;28;20560;-72
2021/04/07 03:25:48;;;;;;;14.70;4.33;;;;;;;-1.11;84.58;99827.72;5095554;28;20608;-72
2021/04/07 03:28:13;;;;;;;12.97;3.87;;;;;;;-1.20;85.05;99821.78;5094637;28;20232;-71
2021/04/07 03:30:50;;;;;;;9.23;4.10;;;;;;;-1.17;84.56;99825.19;5095060;28;20209;-72
2021/04/07 03:33:19;;;;;;;15.03;4.57;;;;;;;-1.20;85.16;99827.88;5096195;28;20154;-72
2021/04/07 03:35:45;;;;;;;17.50;5.03;;;;;;;-1.24;84.95;99826.22;5094979;28;20220;-72
2021/04/07 03:38:11;;;;;;;16.77;5.03;;;;;;;-1.17;85.07;99817.34;5093570;28;20185;-72
2021/04/07 03:40:37;;;;;;;13.30;5.20;;;;;;;-1.15;84.92;99826.03;5094548;28;20550;-70
2021/04/07 03:43:06;;;;;;;15.10;4.97;;;;;;;-1.17;84.81;99819.97;5076709;28;20197;-71
2021/04/07 03:45:32;;;;;;;16.47;5.00;;;;;;;-1.20;84.97;99827.88;5093745;28;20215;-72
2021/04/07 03:47:57;;;;;;;13.47;4.97;;;;;;;-1.20;85.10;99840.13;5092821;28;20778;-71
2021/04/07 03:50:22;;;;;;;18.37;5.60;;;;;;;-1.14;85.27;99847.84;5093704;28;20194;-71
2021/04/07 03:52:48;;;;;;;14.13;5.37;;;;;;;-1.15;85.25;99852.22;5092491;28;20188;-72
2021/04/07 03:55:13;;;;;;;20.50;5.23;;;;;;;-1.16;85.19;99853.13;5093815;28;20174;-71
2021/04/07 03:57:38;;;;;;;12.80;5.10;;;;;;;-1.12;85.13;99848.66;5093716;28;20185;-72
2021/04/07 04:00:04;;;;;;;16.70;5.63;;;;;;;-1.18;85.51;99846.19;5092441;28;20712;-71
2021/04/07 04:02:30;;;;;;;16.90;6.23;;;;;;;-1.20;85.47;99856.69;5093870;28;20587;-71
2021/04/07 04:04:55;;;;;;;16.53;5.67;;;;;;;-1.19;85.51;99866.28;5093526;28;20174;-71
2021/04/07 04:07:20;;;;;;;12.50;5.33;;;;;;;-1.17;85.76;99858.38;5093793;28;20227;-72
2021/04/07 04:09:46;;;;;;;14.47;5.33;;;;;;;-1.24;85.37;99862.88;5093349;28;20198;-72
2021/04/07 04:12:11;;;;;;;13.63;5.83;;;;;;;-1.17;85.73;99859.25;5093718;28;20190;-72
2021/04/07 04:14:37;;;;;;;17.77;5.47;;;;;;;-1.17;85.46;99861.88;5093899;28;20687;-72
2021/04/07 04:17:02;;;;;;;16.43;5.13;;;;;;;-1.16;85.82;99857.50;5093287;28;20174;-71
2021/04/07 04:19:28;;;;;;;13.37;5.03;;;;;;;-1.14;85.68;99846.09;5075226;28;20604;-72
2021/04/07 04:21:53;;;;;;;19.53;5.03;;;;;;;-1.09;85.31;99856.50;5093471;28;20169;-72
2021/04/07 04:24:18;;;;;;;9.17;4.13;;;;;;;-1.11;85.68;99880.09;5091926;28;20189;-71
2021/04/07 04:26:44;;;;;;;16.83;5.30;;;;;;;-1.02;84.75;99858.09;5091839;28;20188;-71
2021/04/07 04:29:09;;;;;;;12.77;4.70;;;;;;;-1.13;85.47;99870.50;5093268;28;20531;-71
2021/04/07 04:31:34;;;;;;;17.87;4.87;;;;;;;-1.14;85.17;99863.56;5092112;28;20294;-71
2021/04/07 04:33:59;;;;;;;14.97;4.47;;;;;;;-1.07;85.17;99871.28;5093125;28;20170;-71
2021/04/07 04:36:25;;;;;;;17.00;4.47;;;;;;;-1.03;85.03;99893.88;5093441;28;20181;-70
2021/04/07 04:38:50;;;;;;;14.00;4.60;;;;;;;-1.03;85.15;99888.66;5094542;28;20236;-71
2021/04/07 04:41:15;;;;;;;9.53;3.77;;;;;;;-0.99;84.60;99892.06;5096021;28;20173;-70
2021/04/07 04:43:41;;;;;;;18.13;3.93;;;;;;;-1.02;84.74;99884.28;5097187;28;20178;-71
2021/04/07 04:46:07;;;;;;;12.40;4.37;;;;;;;-0.94;84.34;99890.22;5096820;28;20200;-71
2021/04/07 04:48:32;;;;;;;15.40;4.07;;;;;;;-0.88;84.41;99899.69;5096799;28;20261;-71
2021/04/07 04:50:57;;;;;;;13.50;3.80;;;;;;;-0.85;84.23;99892.63;5096967;28;20198;-71
2021/04/07 04:53:22;;;;;;;15.97;4.30;;;;;;;-0.85;84.38;99894.38;5096716;28;20635;-70
2021/04/07 04:55:48;;;;;;;12.83;4.37;;;;;;;-0.84;84.45;99886.50;5095541;28;20178;-72
2021/04/07 04:58:13;;;;;;;11.83;3.23;;;;;;;-0.71;83.79;99892.34;5095566;28;20174;-72
2021/04/07 05:00:38;;;;;;;13.27;3.10;;;;;;;-0.74;83.75;99895.03;5096359;28;20675;-70
2021/04/07 05:03:04;;;;;;;8.30;3.20;;;;;;;-0.66;83.45;99895.72;5096845;28;20177;-72
2021/04/07 05:05:29;;;;;;;12.47;3.70;;;;;;;-0.57;83.24;99908.63;5096726;28;20185;-71
2021/04/07 05:07:55;;;;;;;11.60;3.47;;;;;;;-0.39;82.64;99905.56;5096689;28;20239;-70
2021/04/07 05:10:20;;;;;;;8.87;3.40;;;;;;;-0.35;82.45;99920.34;5095047;28;20573;-71
2021/04/07 05:12:46;;;;;;;8.07;3.50;;;;;;;-0.35;82.87;99927.34;5096352;28;20179;-72
2021/04/07 05:15:12;;;;;;;14.90;3.87;;;;;;;-0.23;82.04;99936.69;5097756;28;20174;-72
2021/04/07 05:17:37;;;;;;;8.90;2.93;;;;;;;-0.21;81.83;99927.88;5096645;28;20182;-72
2021/04/07 05:20:04;;;;;;;10.17;3.60;;;;;;;-0.16;81.95;99933.88;5097306;28;20194;-72
2021/04/07 05:22:29;;;;;;;11.83;4.10;;;;;;;-0.12;81.79;99946.03;5096679;28;20554;-72
2021/04/07 05:24:55;;;;;;;14.93;3.87;;;;;;;-0.14;81.39;99933.84;5096174;28;20175;-72
2021/04/07 05:27:20;;;;;;;14.83;4.17;;;;;;;-0.14;82.12;99936.47;5096207;28;20186;-72
2021/04/07 05:29:45;;;;;;;13.50;4.27;;;;;;;-0.12;81.46;99947.78;5096309;28;20315;-72
2021/04/07 05:32:10;;;;;;;11.10;4.13;;;;;;;-0.14;81.92;99945.19;5095129;28;20190;-72
2021/04/07 05:34:36;;;;;;;12.43;4.33;;;;;;;-0.05;80.95;99944.97;5096003;28;20516;-71
2021/04/07 05:37:01;;;;;;;9.80;4.30;;;;;;;-0.05;81.13;99954.59;5096099;28;20258;-71
2021/04/07 05:39:26;;;;;;;13.53;5.00;;;;;;;-0.03;81.40;99956.28;5094668;28;20194;-71
2021/04/07 05:41:52;;;;;;;12.97;4.23;;;;;;;0.02;80.77;99950.97;5096126;28;20202;-70
2021/04/07 05:44:17;;;;;;;10.23;4.03;;;;;;;0.03;80.46;99962.31;5095756;28;20175;-71
2021/04/07 05:46:42;;;;;;;15.53;4.73;;;;;;;-0.01;80.79;99962.38;5095838;28;20178;-72
2021/04/07 05:49:08;;;;;;;11.07;4.33;;;;;;;0.01;81.07;99975.47;5093712;28;20198;-71
2021/04/07 05:51:33;;;;;;;14.23;4.73;;;;;;;0.08;80.55;99963.06;5094888;28;20205;-71
2021/04/07 05:53:58;;;;;;;17.63;4.17;;;;;;;0.05;80.60;99958.75;5096272;28;20187;-72
2021/04/07 05:56:24;;;;;;;11.90;3.97;;;;;;;0.01;81.00;99970.22;5096039;28;20622;-72
2021/04/07 05:58:49;;;;;;;9.10;4.00;;;;;;;0.14;80.23;99973.41;5095714;28;20236;-72
2021/04/07 06:01:14;;;;;;;12.77;4.33;;;;;;;0.25;79.94;99974.88;5095096;28;20170;-71
2021/04/07 06:03:40;;;;;;;9.73;4.30;;;;;;;0.28;79.68;99973.94;5095997;28;20174;-72
2021/04/07 06:06:06;;;;;;;9.77;4.00;;;;;;;0.25;79.86;99980.13;5096848;28;20186;-71
2021/04/07 06:08:31;;;;;;;16.70;4.07;;;;;;;0.29;80.02;99976.50;5095698;28;20634;-71
2021/04/07 06:10:56;;;;;;;14.43;4.10;;;;;;;0.37;78.98;99999.09;5095653;28;20208;-71
2021/04/07 06:13:22;;;;;;;14.87;4.93;;;;;;;0.46;79.12;99981.38;5094815;28;20178;-71
2021/04/07 06:15:47;;;;;;;11.17;4.47;;;;;;;0.59;78.05;99990.66;5094658;28;20177;-72
2021/04/07 06:18:14;;;;;;;12.23;4.77;;;;;;;0.57;78.53;99991.59;5095718;28;20605;-72
2021/04/07 06:20:43;;;;;;;14.00;3.90;;;;;;;0.63;78.83;100005.41;5094356;28;20194;-72
2021/04/07 06:23:09;;;;;;;11.87;4.30;;;;;;;0.67;77.81;99995.69;5094425;28;20178;-73
2021/04/07 06:25:36;;;;;;;10.83;4.20;;;;;;;0.73;77.15;99987.66;5094252;28;20723;-71
2021/04/07 06:28:05;;;;;;;11.87;4.00;;;;;;;0.74;77.96;100005.13;5095516;28;20182;-72
2021/04/07 06:30:46;;;;;;;14.23;3.87;;;;;;;0.88;77.10;99992.50;5094401;28;20613;-73
2021/04/07 06:33:12;;;;;;;11.47;4.00;;;;;;;0.92;77.12;99994.16;5096042;28;20162;-71
2021/04/07 06:35:38;;;;;;;10.57;3.70;;;;;;;1.02;76.26;100010.53;5095952;28;20170;-72
2021/04/07 06:38:03;;;;;;;16.43;4.50;;;;;;;0.93;77.51;99990.63;5094714;28;20170;-71
2021/04/07 06:40:29;;;;;;;14.23;4.10;;;;;;;1.04;76.46;100005.22;5096177;28;20256;-71
2021/04/07 06:42:57;;;;;;;17.77;4.10;;;;;;;0.99;76.45;99994.84;5095448;28;20538;-72
2021/04/07 06:45:22;;;;;;;11.53;4.27;;;;;;;0.96;77.23;100000.19;5096749;28;20174;-72
2021/04/07 06:47:50;;;;;;;8.30;3.97;;;;;;;1.05;76.43;100014.84;5095032;28;20542;-72
2021/04/07 06:50:15;;;;;;;11.10;3.93;;;;;;;1.18;76.29;99996.09;5095376;28;20314;-73
2021/04/07 06:52:43;;;;;;;14.67;4.40;;;;;;;1.36;75.61;99992.06;5096065;28;20272;-72
2021/04/07 06:55:09;;;;;;;7.60;3.97;;;;;;;1.32;75.77;100003.56;5093772;28;20181;-72
2021/04/07 06:57:34;;;;;;;9.93;3.90;;;;;;;1.46;75.11;100000.53;5093442;28;20515;-71
2021/04/07 06:59:59;;;;;;;12.90;3.77;;;;;;;1.28;76.02;100025.59;5093359;28;20205;-71
2021/04/07 07:02:25;;;;;;;19.47;4.60;;;;;;;1.52;75.08;100003.00;5093494;28;20178;-72
2021/04/07 07:04:50;;;;;;;9.53;3.60;;;;;;;1.60;74.85;100022.06;5094669;28;20220;-72
2021/04/07 07:07:15;;;;;;;11.47;4.00;;;;;;;1.60;74.47;100029.09;5094526;28;20280;-73
2021/04/07 07:09:51;;;;;;;14.73;4.50;;;;;;;1.59;74.91;100012.44;5093367;28;20194;-71
2021/04/07 07:12:18;;;;;;;10.77;4.40;;;;;;;1.54;74.79;100028.38;5093588;28;20309;-72
2021/04/07 07:14:44;;;;;;;14.03;4.40;;;;;;;1.60;73.85;100021.19;5092886;28;20181;-71
2021/04/07 07:17:09;;;;;;;10.43;4.23;;;;;;;1.72;73.42;100023.44;5093451;28;20560;-71
2021/04/07 07:19:35;;;;;;;15.87;4.50;;;;;;;1.64;74.05;100052.63;5094390;28;20189;-72
2021/04/07 07:22:02;;;;;;;12.60;4.17;;;;;;;1.79;74.11;100038.16;5094511;28;20170;-73
2021/04/07 07:24:35;;;;;;;18.30;4.87;;;;;;;1.93;73.76;100014.94;5094934;28;20180;-72
2021/04/07 07:27:02;;;;;;;13.37;3.93;;;;;;;1.78;73.89;100023.25;5075979;28;20176;-70
2021/04/07 07:29:29;;;;;;;14.80;4.73;;;;;;;1.71;75.33;100046.28;5094291;28;20194;-72
2021/04/07 07:32:05;;;;;;;14.57;4.20;;;;;;;1.71;75.25;100029.63;5093137;28;20199;-73
2021/04/07 07:34:31;;;;;;;19.67;4.70;;;;;;;1.73;75.28;100030.44;5093997;28;20166;-72
2021/04/07 07:36:57;;;;;;;15.20;3.90;;;;;;;1.85;73.63;100046.72;5092928;28;20206;-73
2021/04/07 07:39:27;;;;;;;16.37;5.33;;;;;;;2.05;73.86;100064.56;5092454;28;20186;-71
2021/04/07 07:41:57;;;;;;;15.83;4.57;;;;;;;2.02;73.70;100033.06;5094853;28;20224;-73
2021/04/07 07:44:23;;;;;;;12.60;4.40;;;;;;;2.08;72.98;100056.56;5094140;28;20159;-73
2021/04/07 07:47:06;;;;;;;9.83;3.83;;;;;;;2.39;72.24;100048.56;5094190;28;20547;-73
2021/04/07 07:49:31;;;;;;;13.50;4.50;;;;;;;2.46;71.56;100047.47;5093471;28;20190;-72
2021/04/07 07:51:57;;;;;;;11.50;4.53;;;;;;;2.35;71.72;100054.00;5094321;28;20207;-72
2021/04/07 07:54:23;;;;;;;14.83;4.10;;;;;;;2.33;72.36;100063.72;5094291;28;20178;-73
2021/04/07 07:56:50;;;;;;;15.17;4.77;;;;;;;2.32;71.62;100064.63;5093320;28;20175;-72
2021/04/07 07:59:44;;;;;;;16.17;5.30;;;;;;;2.46;71.28;100075.56;5094404;28;20188;-73
2021/04/07 08:02:21;;;;;;;14.50;4.73;;;;;;;2.70;70.40;100072.16;5076718;28;20232;-72
2021/04/07 08:04:47;;;;;;;12.10;4.57;;;;;;;2.92;70.08;100064.38;5092913;28;20200;-72
2021/04/07 08:07:13;;;;;;;17.23;4.23;;;;;;;2.98;70.05;100064.19;5092665;28;20169;-72
2021/04/07 08:09:39;;;;;;;17.50;5.30;;;;;;;3.00;70.03;100093.16;5092218;28;20193;-71
2021/04/07 08:12:05;;;;;;;14.27;3.97;;;;;;;2.98;69.32;100077.38;5093579;28;20220;-72
2021/04/07 08:14:30;;;;;;;13.97;4.30;;;;;;;3.21;68.78;100070.44;5096461;28;20298;-72
2021/04/07 08:16:56;;;;;;;8.23;3.13;;;;;;;3.49;67.45;100092.31;5096478;28;20184;-73
2021/04/07 08:19:22;;;;;;;12.33;4.03;;;;;;;3.51;67.75;100093.09;5096576;28;20196;-72
2021/04/07 08:21:47;;;;;;;13.40;4.10;;;;;;;3.30;67.95;100097.34;5097926;28;20172;-72
2021/04/07 08:24:13;;;;;;;12.60;3.60;;;;;;;3.11;67.64;100086.59;5097502;28;20177;-73
2021/04/07 08:26:42;;;;;;;15.00;4.77;;;;;;;2.98;69.53;100095.84;5096597;28;20165;-72
2021/04/07 08:29:07;;;;;;;13.83;4.17;;;;;;;3.15;69.53;100084.72;5096377;28;20211;-71
2021/04/07 08:31:34;;;;;;;11.60;3.43;;;;;;;3.21;68.13;100088.91;5096769;28;20196;-72
2021/04/07 08:34:02;;;;;;;9.73;3.43;;;;;;;3.32;68.30;100097.28;5097552;28;20311;-72
2021/04/07 08:36:28;;;;;;;14.60;3.40;;;;;;;3.35;67.29;100116.53;5097598;28;20169;-72
2021/04/07 08:39:03;;;;;;;12.33;3.53;;;;;;;3.40;66.51;100104.06;5097427;28;20558;-72
2021/04/07 08:41:28;;;;;;;11.37;3.83;;;;;;;3.50;66.42;100109.00;5097540;28;20204;-71
2021/04/07 08:43:55;;;;;;;12.43;3.27;;;;;;;3.26;66.66;100110.69;5096064;28;20253;-72
2021/04/07 08:46:26;;;;;;;14.90;4.07;;;;;;;3.19;65.65;100120.59;5096330;28;20176;-72
2021/04/07 08:48:52;;;;;;;12.43;3.17;;;;;;;3.32;65.77;100113.97;5097898;28;20195;-72
2021/04/07 08:51:19;;;;;;;11.03;2.77;;;;;;;3.30;63.48;100118.44;5096176;28;20193;-72
2021/04/07 08:53:49;;;;;;;17.07;3.63;;;;;;;3.20;64.58;100119.69;5096512;28;20200;-72
2021/04/07 08:56:29;;;;;;;8.43;2.60;;;;;;;3.50;64.01;100141.53;5096654;28;20174;-72
2021/04/07 08:59:00;;;;;;;13.60;2.90;;;;;;;3.83;64.25;100134.19;5096030;28;20199;-72
2021/04/07 09:01:33;;;;;;;9.03;2.60;;;;;;;4.01;63.27;100112.38;5096035;28;20153;-71
2021/04/07 09:04:04;;;;;;;15.17;4.93;;;;;;;3.99;62.10;100130.06;5097387;28;20176;-71
2021/04/07 09:06:29;;;;;;;9.80;2.57;;;;;;;3.98;61.62;100132.75;5096994;28;20170;-72
2021/04/07 09:08:55;;;;;;;11.80;3.57;;;;;;;3.80;62.63;100118.47;5096833;28;20200;-72
2021/04/07 09:11:26;;;;;;;5.77;2.10;;;;;;;3.97;61.77;100138.94;5096895;28;20186;-72
2021/04/07 09:13:54;;;;;;;12.03;2.90;;;;;;;3.73;62.10;100116.97;5096963;28;20169;-71
2021/04/07 09:16:29;;;;;;;8.23;2.47;;;;;;;3.95;62.16;100122.31;5096734;28;20176;-72
2021/04/07 09:18:54;;;;;;;7.73;2.60;;;;;;;4.31;60.98;100113.00;5096803;28;20344;-73
2021/04/07 09:21:21;;;;;;;12.03;2.43;;;;;;;4.31;60.02;100110.34;5096783;28;20161;-71
2021/04/07 09:23:51;;;;;;;10.73;3.27;;;;;;;4.36;60.04;100140.09;5095367;28;20168;-72
2021/04/07 09:26:19;;;;;;;6.53;2.43;;;;;;;4.26;61.75;100106.16;5095924;28;20248;-70
2021/04/07 09:28:46;;;;;;;7.13;2.10;;;;;;;3.99;60.21;100152.94;5096496;28;20178;-73
2021/04/07 09:31:27;;;;;;;8.60;1.87;;;;;;;3.62;61.55;100158.69;5096799;28;20201;-72
2021/04/07 09:33:55;;;;;;;10.87;2.53;;;;;;;3.75;60.89;100158.22;5095618;28;20213;-72
2021/04/07 09:36:26;;;;;;;9.10;2.30;;;;;;;3.77;61.53;100134.41;5095009;28;20174;-72
2021/04/07 09:38:52;;;;;;;7.43;2.00;;;;;;;3.80;59.98;100175.66;5096558;28;20205;-72
2021/04/07 09:41:19;;;;;;;7.37;2.00;;;;;;;3.41;60.93;100137.44;5078258;28;20183;-72
2021/04/07 09:43:45;;;;;;;8.37;2.27;;;;;;;3.24;62.36;100149.44;5095214;28;20275;-72
2021/04/07 09:46:10;;;;;;;8.33;2.00;;;;;;;3.20;61.74;100132.00;5095675;28;20647;-72
2021/04/07 09:48:43;;;;;;;7.30;2.00;;;;;;;3.27;61.72;100139.66;5095388;28;20189;-72
2021/04/07 09:51:31;;;;;;;8.03;2.23;;;;;;;3.59;61.38;100138.53;5096339;28;20288;-71
2021/04/07 09:54:22;;;;;;;8.17;2.50;;;;;;;3.79;61.27;100151.06;5096336;28;20177;-73
2021/04/07 09:56:47;;;;;;;10.00;2.40;;;;;;;4.18;60.95;100138.16;5095261;28;20202;-71
2021/04/07 09:59:13;;;;;;;10.83;2.50;;;;;;;4.71;60.78;100136.06;5096029;28;20193;-71
2021/04/07 10:01:41;;;;;;;3.93;1.80;;;;;;;5.07;58.25;100126.72;5096525;28;20166;-70
2021/04/07 10:04:07;;;;;;;10.03;2.37;;;;;;;4.84;58.08;100140.88;5096402;28;20238;-71
2021/04/07 10:06:33;;;;;;;9.07;1.83;;;;;;;4.71;59.58;100120.22;5078419;28;20174;-72
2021/04/07 10:09:07;;;;;;;10.20;2.60;;;;;;;4.29;60.44;100146.53;5095117;28;20182;-71
2021/04/07 10:11:39;;;;;;;8.07;2.37;;;;;;;4.29;60.26;100138.59;5096604;28;20192;-71
2021/04/07 10:14:06;;;;;;;8.63;2.13;;;;;;;4.24;59.98;100135.28;5095571;28;20670;-71
2021/04/07 10:16:36;;;;;;;6.30;2.07;;;;;;;4.07;61.10;100142.97;5097911;28;20173;-71
2021/04/07 10:19:09;;;;;;;6.57;2.00;;;;;;;4.31;58.87;100146.47;5096945;28;20229;-71
2021/04/07 10:21:35;;;;;;;7.17;2.40;;;;;;;4.04;60.66;100133.38;5094669;28;20180;-70
2021/04/07 10:24:01;;;;;;;5.17;2.27;;;;;;;4.05;60.17;100156.22;5094747;28;20177;-71
2021/04/07 10:26:27;;;;;;;5.93;1.90;;;;;;;3.95;60.71;100165.41;5095857;28;20167;-71
2021/04/07 10:28:59;;;;;;;6.43;1.70;;;;;;;3.78;59.98;100154.59;5095134;28;20208;-71
2021/04/07 10:31:26;;;;;;;7.70;2.30;;;;;;;3.83;60.66;100160.59;5094310;28;20190;-72
2021/04/07 10:34:04;;;;;;;4.27;1.90;;;;;;;3.72;61.28;100152.19;5095889;28;20166;-72
2021/04/07 10:36:30;;;;;;;7.53;2.50;;;;;;;3.56;61.27;100177.38;5094688;28;20168;-71
2021/04/07 10:38:57;;;;;;;5.67;2.00;;;;;;;3.37;62.27;100143.72;5094883;28;20194;-71
2021/04/07 10:41:25;;;;;;;4.17;2.20;;;;;;;3.44;62.13;100158.44;5095598;28;20175;-71
2021/04/07 10:43:50;;;;;;;9.47;2.30;;;;;;;3.50;61.85;100165.25;5094028;28;20295;-70
2021/04/07 10:46:15;;;;;;;7.10;2.30;;;;;;;3.96;59.77;100167.13;5093376;28;20660;-69
2021/04/07 10:48:41;;;;;;;12.17;2.00;;;;;;;4.22;59.33;100176.75;5094576;28;20173;-70
2021/04/07 10:51:06;;;;;;;5.13;1.90;;;;;;;4.35;58.29;100142.78;5094458;28;20198;-70
2021/04/07 10:53:36;;;;;;;3.67;1.43;;;;;;;4.53;57.95;100151.81;5094430;28;20226;-70
2021/04/07 10:56:13;;;;;;;7.00;2.17;;;;;;;4.54;57.62;100164.97;5094476;28;20162;-70
2021/04/07 10:58:38;;;;;;;8.17;2.00;;;;;;;4.25;59.77;100166.06;5093224;28;20150;-71
2021/04/07 11:01:03;;;;;;;9.37;2.33;;;;;;;4.03;61.39;100160.69;5093388;28;20511;-70
2021/04/07 11:03:31;;;;;;;8.27;1.90;;;;;;;3.93;61.68;100164.59;5094256;28;20178;-71
2021/04/07 11:05:56;;;;;;;8.10;1.53;;;;;;;3.94;62.19;100163.69;5094351;28;20590;-71
2021/04/07 11:08:33;;;;;;;11.23;2.50;;;;;;;3.88;61.67;100156.00;5092779;28;20177;-71
2021/04/07 11:10:59;;;;;;;10.70;2.27;;;;;;;3.69;61.71;100176.03;5094345;28;20207;-71
2021/04/07 11:13:24;;;;;;;9.77;2.20;;;;;;;3.53;62.89;100166.94;5092926;28;20674;-71
2021/04/07 11:15:49;;;;;;;5.87;2.13;;;;;;;3.42;61.98;100170.81;5094252;28;20197;-71
2021/04/07 11:18:15;;;;;;;4.97;1.90;;;;;;;3.36;62.89;100200.03;5093958;28;20516;-71
2021/04/07 11:20:42;;;;;;;7.70;1.67;;;;;;;3.70;61.24;100170.69;5092751;28;20563;-71
2021/04/07 11:23:09;;;;;;;5.37;1.77;;;;;;;3.96;61.33;100182.09;5092982;28;20538;-70
2021/04/07 11:25:34;;;;;;;6.53;2.13;;;;;;;4.22;59.72;100171.47;5092845;28;20231;-72
2021/04/07 11:28:00;;;;;;;7.60;1.90;;;;;;;4.38;59.31;100172.59;5093558;28;20650;-71